createdAt,value
2023-05-11T00:00:54.820Z,99407.33
2023-05-11T00:02:00.124Z,99411.57
2023-05-11T00:03:05.528Z,99411.67
2023-05-11T00:04:11.277Z,99417.97
2023-05-11T00:05:16.548Z,99408.37
2023-05-11T00:06:21.694Z,99412.28
2023-05-11T00:07:26.894Z,99415.59
2023-05-11T00:08:32.055Z,99411.34
2023-05-11T00:09:37.220Z,99410.83
2023-05-11T00:10:42.377Z,99411.45
2023-05-11T00:11:47.537Z,99411.45
2023-05-11T00:12:52.706Z,99407.73
2023-05-11T00:13:58.003Z,99413.73
2023-05-11T00:15:03.192Z,99407.63
2023-05-11T00:16:08.543Z,99411.57
2023-05-11T00:17:13.815Z,99408.89
2023-05-11T00:18:19.042Z,99410.23
2023-05-11T00:19:24.239Z,99411.12
2023-05-11T00:20:29.409Z,99406.59
2023-05-11T00:21:34.564Z,99405.36
2023-05-11T00:22:39.684Z,99408.89
2023-05-11T00:23:46.793Z,99399.17
2023-05-11T00:24:51.953Z,99401.03
2023-05-11T00:25:57.140Z,99402.05
2023-05-11T00:27:02.302Z,99401.03
2023-05-11T00:28:07.584Z,99401.03
2023-05-11T00:29:12.786Z,99399.89
2023-05-11T00:30:18.307Z,99403.17
2023-05-11T00:31:23.963Z,99399.77
2023-05-11T00:32:29.570Z,99396.46
2023-05-11T00:33:34.841Z,99389.88
2023-05-11T00:34:40.010Z,99406.18
2023-05-11T00:35:45.202Z,99399.77
2023-05-11T00:36:50.368Z,99398.14
2023-05-11T00:37:55.567Z,99403.58
2023-05-11T00:39:00.728Z,99396.88
2023-05-11T00:40:05.994Z,99395.75
2023-05-11T00:41:11.145Z,99393.07
2023-05-11T00:42:16.315Z,99404.31
2023-05-11T00:43:21.474Z,99393.16
2023-05-11T00:44:26.631Z,99394.41
2023-05-11T00:45:31.830Z,99396.05
2023-05-11T00:46:37.080Z,99389.35
2023-05-11T00:47:42.416Z,99403.69
2023-05-11T00:48:47.605Z,99404.09
2023-05-11T00:49:52.754Z,99401
2023-05-11T00:50:57.925Z,99397.09
2023-05-11T00:52:03.255Z,99403.8
2023-05-11T00:53:08.717Z,99394.69
2023-05-11T00:54:13.922Z,99394.5
2023-05-11T00:55:19.113Z,99400.27
2023-05-11T00:56:24.302Z,99394.61
2023-05-11T00:57:29.532Z,99390.47
2023-05-11T00:58:34.721Z,99392.22
2023-05-11T00:59:39.904Z,99392.74
2023-05-11T01:00:45.135Z,99396.35
2023-05-11T01:01:50.415Z,99393.67
2023-05-11T01:02:55.941Z,99389.43
2023-05-11T01:04:01.288Z,99402.23
2023-05-11T01:05:06.472Z,99392.86
2023-05-11T01:06:11.660Z,99393.86
2023-05-11T01:07:16.823Z,99393.13
2023-05-11T01:08:21.991Z,99391.59
2023-05-11T01:09:27.148Z,99392.52
2023-05-11T01:10:32.288Z,99393.31
2023-05-11T01:11:37.496Z,99394.39
2023-05-11T01:12:42.837Z,99388.28
2023-05-11T01:13:48.003Z,99396.21
2023-05-11T01:14:53.154Z,99387.54
2023-05-11T01:15:58.345Z,99401.58
2023-05-11T01:17:03.827Z,99394.58
2023-05-11T01:18:10.028Z,99398.48
2023-05-11T01:19:16.093Z,99397.26
2023-05-11T01:20:21.674Z,99398.59
2023-05-11T01:21:26.820Z,99400.34
2023-05-11T01:22:31.988Z,99394.47
2023-05-11T01:23:37.149Z,99397.03
2023-05-11T01:24:42.291Z,99397.78
2023-05-11T01:25:47.443Z,99397.78
2023-05-11T01:26:52.610Z,99396.63
2023-05-11T01:27:57.826Z,99402.7
2023-05-11T01:29:02.992Z,99403.33
2023-05-11T01:30:08.156Z,99404.97
2023-05-11T01:31:13.317Z,99404.14
2023-05-11T01:32:18.496Z,99405.08
2023-05-11T01:33:23.682Z,99406
2023-05-11T01:34:28.855Z,99411.89
2023-05-11T01:35:34.013Z,99406.53
2023-05-11T01:36:39.291Z,99406.31
2023-05-11T01:37:44.491Z,99407.42
2023-05-11T01:38:49.664Z,99405.67
2023-05-11T01:39:54.826Z,99411.03
2023-05-11T01:40:59.981Z,99408.88
2023-05-11T01:42:05.179Z,99407.2
2023-05-11T01:43:10.376Z,99407.2
2023-05-11T01:44:15.562Z,99408.25
2023-05-11T01:45:20.732Z,99405.98
2023-05-11T01:46:25.934Z,99407.64
2023-05-11T01:47:31.221Z,99408.06
2023-05-11T01:48:36.418Z,99411.75
2023-05-11T01:49:41.579Z,99400.09
2023-05-11T01:50:46.723Z,99397.19
2023-05-11T01:51:51.885Z,99402.55
2023-05-11T01:52:57.103Z,99407.73
2023-05-11T01:54:02.330Z,99402.14
2023-05-11T01:55:07.508Z,99408.25
2023-05-11T01:56:12.679Z,99406.69
2023-05-11T01:57:18.411Z,99398.75
2023-05-11T01:58:23.557Z,99400.91
2023-05-11T01:59:28.747Z,99409.17
2023-05-11T02:00:33.911Z,99410.81
2023-05-11T02:01:39.270Z,99404.94
2023-05-11T02:02:44.701Z,99408.55
2023-05-11T02:03:50.133Z,99406.87
2023-05-11T02:04:55.362Z,99406.05
2023-05-11T02:06:00.543Z,99406.8
2023-05-11T02:07:05.697Z,99410.81
2023-05-11T02:08:10.845Z,99413.58
2023-05-11T02:09:15.988Z,99406.05
2023-05-11T02:10:21.518Z,99408.22
2023-05-11T02:11:26.706Z,99410.59
2023-05-11T02:12:31.845Z,99411
2023-05-11T02:13:37.000Z,99415.44
2023-05-11T02:14:42.217Z,99416.55
2023-05-11T02:15:47.459Z,99413.27
2023-05-11T02:16:52.698Z,99414.62
2023-05-11T02:17:57.917Z,99411
2023-05-11T02:19:03.396Z,99416.37
2023-05-11T02:20:08.749Z,99416.74
2023-05-11T02:21:13.903Z,99412.42
2023-05-11T02:22:19.062Z,99413.77
2023-05-11T02:23:24.251Z,99410.86
2023-05-11T02:24:29.411Z,99415.81
2023-05-11T02:25:34.571Z,99414.8
2023-05-11T02:26:39.730Z,99416.14
2023-05-11T02:27:44.962Z,99412.53
2023-05-11T02:28:50.120Z,99414.39
2023-05-11T02:29:55.281Z,99421.09
2023-05-11T02:31:00.588Z,99407.25
2023-05-11T02:32:05.854Z,99412.61
2023-05-11T02:33:11.198Z,99422.92
2023-05-11T02:34:16.369Z,99415.07
2023-05-11T02:35:21.536Z,99421.69
2023-05-11T02:36:26.942Z,99418.19
2023-05-11T02:37:32.102Z,99420.24
2023-05-11T02:38:37.249Z,99416.52
2023-05-11T02:39:42.418Z,99418.68
2023-05-11T02:40:47.578Z,99420.54
2023-05-11T02:41:52.780Z,99421.47
2023-05-11T02:42:58.139Z,99426.09
2023-05-11T02:44:03.346Z,99417.34
2023-05-11T02:45:08.510Z,99420.73
2023-05-11T02:46:13.747Z,99424.86
2023-05-11T02:47:18.963Z,99418.34
2023-05-11T02:48:24.131Z,99422.26
2023-05-11T02:49:29.315Z,99418.76
2023-05-11T02:50:34.485Z,99420.31
2023-05-11T02:51:39.732Z,99420.24
2023-05-11T02:52:44.922Z,99413.92
2023-05-11T02:53:50.096Z,99419.8
2023-05-11T02:54:55.312Z,99417.83
2023-05-11T02:56:00.462Z,99419.58
2023-05-11T02:57:05.640Z,99415.67
2023-05-11T02:58:10.907Z,99415.33
2023-05-11T02:59:16.120Z,99417.42
2023-05-11T03:00:21.980Z,99418.76
2023-05-11T03:01:31.082Z,99420.09
2023-05-11T03:02:36.847Z,99413.17
2023-05-11T03:03:42.576Z,99418.87
2023-05-11T03:04:48.151Z,99422.89
2023-05-11T03:05:53.370Z,99416.89
2023-05-11T03:06:58.616Z,99414
2023-05-11T03:08:03.840Z,99417.2
2023-05-11T03:09:11.446Z,99415.86
2023-05-11T03:10:17.486Z,99419.88
2023-05-11T03:11:23.085Z,99418.12
2023-05-11T03:12:28.275Z,99415.14
2023-05-11T03:13:33.444Z,99419.16
2023-05-11T03:14:38.620Z,99418.09
2023-05-11T03:15:43.811Z,99422.74
2023-05-11T03:16:49.074Z,99424.52
2023-05-11T03:17:54.400Z,99425.42
2023-05-11T03:18:59.926Z,99425.42
2023-05-11T03:20:05.500Z,99416.86
2023-05-11T03:21:10.701Z,99422.85
2023-05-11T03:22:15.885Z,99426.35
2023-05-11T03:23:21.030Z,99428.21
2023-05-11T03:24:26.257Z,99412.92
2023-05-11T03:25:31.429Z,99421.29
2023-05-11T03:26:36.618Z,99423.97
2023-05-11T03:27:41.823Z,99418.5
2023-05-11T03:28:47.126Z,99428.51
2023-05-11T03:29:52.306Z,99436.84
2023-05-11T03:30:57.542Z,99428.92
2023-05-11T03:32:02.863Z,99432.61
2023-05-11T03:33:08.189Z,99433.34
2023-05-11T03:34:13.445Z,99428.88
2023-05-11T03:35:18.634Z,99431.89
2023-05-11T03:36:23.809Z,99435.28
2023-05-11T03:37:29.009Z,99429.52
2023-05-11T03:38:34.177Z,99437.25
2023-05-11T03:39:39.341Z,99431.05
2023-05-11T03:40:44.481Z,99435.91
2023-05-11T03:41:49.631Z,99432.72
2023-05-11T03:42:54.836Z,99430.03
2023-05-11T03:44:00.002Z,99435.47
2023-05-11T03:45:05.156Z,99435.06
2023-05-11T03:46:16.226Z,99431.56
2023-05-11T03:47:30.836Z,99431.05
2023-05-11T03:48:36.124Z,99431.05
2023-05-11T03:49:41.272Z,99429.81
2023-05-11T03:50:46.482Z,99435.17
2023-05-11T03:51:51.633Z,99428.06
2023-05-11T03:52:56.821Z,99431.27
2023-05-11T03:54:02.005Z,99423.63
2023-05-11T03:55:07.227Z,99434.35
2023-05-11T03:56:12.408Z,99431.75
2023-05-11T03:57:17.579Z,99433.94
2023-05-11T03:58:22.765Z,99435.28
2023-05-11T03:59:28.048Z,99433.09
2023-05-11T04:00:33.342Z,99434.02
2023-05-11T04:01:38.513Z,99428.25
2023-05-11T04:02:43.992Z,99432.27
2023-05-11T04:03:49.873Z,99429.59
2023-05-11T04:04:55.503Z,99428.02
2023-05-11T04:06:00.643Z,99429.18
2023-05-11T04:07:05.866Z,99427.28
2023-05-11T04:08:11.101Z,99434.12
2023-05-11T04:09:16.292Z,99433.91
2023-05-11T04:10:21.655Z,99434.62
2023-05-11T04:11:27.004Z,99438.75
2023-05-11T04:12:32.173Z,99433.05
2023-05-11T04:13:37.370Z,99436.4
2023-05-11T04:14:42.563Z,99440.91
2023-05-11T04:15:47.837Z,99443.58
2023-05-11T04:16:53.089Z,99435.13
2023-05-11T04:17:58.362Z,99433.27
2023-05-11T04:19:03.997Z,99437.41
2023-05-11T04:20:09.340Z,99435.66
2023-05-11T04:21:14.527Z,99434.61
2023-05-11T04:22:19.697Z,99438.11
2023-05-11T04:23:24.879Z,99433.76
2023-05-11T04:24:30.039Z,99436.36
2023-05-11T04:25:35.169Z,99439.27
2023-05-11T04:26:40.368Z,99430.59
2023-05-11T04:27:45.536Z,99441.09
2023-05-11T04:28:50.703Z,99439.97
2023-05-11T04:29:55.943Z,99442.02
2023-05-11T04:31:01.150Z,99437.7
2023-05-11T04:32:06.463Z,99437.52
2023-05-11T04:33:11.902Z,99437.59
2023-05-11T04:34:17.066Z,99435.95
2023-05-11T04:35:22.242Z,99429.66
2023-05-11T04:36:27.469Z,99438.11
2023-05-11T04:37:32.711Z,99433.98
2023-05-11T04:38:37.914Z,99432.94
2023-05-11T04:39:43.109Z,99433.98
2023-05-11T04:40:48.324Z,99434.61
2023-05-11T04:41:53.506Z,99435.2
2023-05-11T04:42:58.664Z,99436.03
2023-05-11T04:44:03.862Z,99429.03
2023-05-11T04:45:09.027Z,99428.92
2023-05-11T04:46:14.862Z,99430.26
2023-05-11T04:47:20.116Z,99429.78
2023-05-11T04:48:25.317Z,99430.78
2023-05-11T04:49:30.553Z,99434.8
2023-05-11T04:50:35.742Z,99432.79
2023-05-11T04:51:40.933Z,99437.06
2023-05-11T04:52:46.160Z,99429.7
2023-05-11T04:53:51.844Z,99439.33
2023-05-11T04:54:57.007Z,99434.63
2023-05-11T04:56:02.213Z,99440.23
2023-05-11T04:57:07.430Z,99434.73
2023-05-11T04:58:12.602Z,99445.59
2023-05-11T04:59:17.793Z,99445.18
2023-05-11T05:00:23.502Z,99448.27
2023-05-11T05:01:28.917Z,99443.84
2023-05-11T05:02:34.318Z,99445.34
2023-05-11T05:03:39.723Z,99445.34
2023-05-11T05:04:44.992Z,99450.2
2023-05-11T05:05:50.163Z,99449.05
2023-05-11T05:06:55.348Z,99449.8
2023-05-11T05:08:00.554Z,99452.55
2023-05-11T05:09:05.799Z,99456.41
2023-05-11T05:10:11.115Z,99450.62
2023-05-11T05:11:16.312Z,99458.66
2023-05-11T05:12:21.544Z,99449.57
2023-05-11T05:13:26.705Z,99459.25
2023-05-11T05:14:31.887Z,99451.73
2023-05-11T05:15:37.068Z,99456.91
2023-05-11T05:16:42.332Z,99447.79
2023-05-11T05:17:47.705Z,99456.49
2023-05-11T05:18:53.041Z,99450.62
2023-05-11T05:19:58.423Z,99449.12
2023-05-11T05:21:03.604Z,99450.06
2023-05-11T05:22:08.808Z,99454.71
2023-05-11T05:23:13.956Z,99452.25
2023-05-11T05:24:19.122Z,99456.16
2023-05-11T05:25:24.313Z,99454.08
2023-05-11T05:26:29.477Z,99451.61
2023-05-11T05:27:36.369Z,99451.32
2023-05-11T05:28:41.538Z,99458.95
2023-05-11T05:29:46.700Z,99455.94
2023-05-11T05:30:52.059Z,99460.28
2023-05-11T05:31:57.325Z,99451.92
2023-05-11T05:33:02.627Z,99455.19
2023-05-11T05:34:07.994Z,99452.33
2023-05-11T05:35:13.178Z,99451.5
2023-05-11T05:36:18.349Z,99453.44
2023-05-11T05:37:23.518Z,99455.11
2023-05-11T05:38:28.726Z,99453.14
2023-05-11T05:39:33.896Z,99450.28
2023-05-11T05:40:39.050Z,99446.03
2023-05-11T05:41:44.247Z,99451.28
2023-05-11T05:42:49.425Z,99445.59
2023-05-11T05:43:54.568Z,99451.28
2023-05-11T05:44:59.705Z,99453.44
2023-05-11T05:46:04.994Z,99451.47
2023-05-11T05:47:10.237Z,99452.1
2023-05-11T05:48:15.417Z,99445.59
2023-05-11T05:49:20.582Z,99449.12
2023-05-11T05:50:25.710Z,99447.04
2023-05-11T05:51:30.862Z,99450.88
2023-05-11T05:52:36.006Z,99457.98
2023-05-11T05:53:41.169Z,99451.98
2023-05-11T05:54:46.371Z,99453.55
2023-05-11T05:55:51.844Z,99457.16
2023-05-11T05:56:56.995Z,99460.02
2023-05-11T05:58:02.217Z,99451.87
2023-05-11T05:59:07.367Z,99454.14
2023-05-11T06:00:12.546Z,99453.96
2023-05-11T06:01:17.718Z,99461.06
2023-05-11T06:02:23.163Z,99454.56
2023-05-11T06:03:30.847Z,99453.96
2023-05-11T06:04:36.483Z,99458.39
2023-05-11T06:05:41.724Z,99457.46
2023-05-11T06:06:46.872Z,99451.47
2023-05-11T06:08:10.845Z,99459.13
2023-05-11T06:09:16.543Z,99456.23
2023-05-11T06:10:21.957Z,99449.75
2023-05-11T06:11:27.130Z,99455.52
2023-05-11T06:12:32.315Z,99454.59
2023-05-11T06:13:37.477Z,99457.69
2023-05-11T06:14:42.670Z,99453.03
2023-05-11T06:15:47.892Z,99456.86
2023-05-11T06:16:53.208Z,99452.29
2023-05-11T06:17:58.449Z,99452.21
2023-05-11T06:19:03.866Z,99458.2
2023-05-11T06:20:09.648Z,99449.94
2023-05-11T06:21:14.915Z,99453.03
2023-05-11T06:22:20.094Z,99450.95
2023-05-11T06:23:25.255Z,99449.94
2023-05-11T06:24:30.476Z,99454.78
2023-05-11T06:25:35.691Z,99457.46
2023-05-11T06:26:40.891Z,99451.06
2023-05-11T06:27:46.105Z,99456.23
2023-05-11T06:28:51.278Z,99458.98
2023-05-11T06:29:56.473Z,99460.33
2023-05-11T06:31:01.691Z,99457.75
2023-05-11T06:32:06.987Z,99462
2023-05-11T06:33:12.277Z,99450.72
2023-05-11T06:34:17.458Z,99456.23
2023-05-11T06:35:22.664Z,99455.82
2023-05-11T06:36:27.920Z,99454.38
2023-05-11T06:37:33.200Z,99455.11
2023-05-11T06:38:38.387Z,99455.63
2023-05-11T06:39:43.583Z,99448.2
2023-05-11T06:40:48.795Z,99452.02
2023-05-11T06:41:58.794Z,99450.58
2023-05-11T06:43:09.014Z,99452.33
2023-05-11T06:44:14.285Z,99455.3
2023-05-11T06:45:19.557Z,99451.28
2023-05-11T06:46:24.904Z,99449.34
2023-05-11T06:47:30.436Z,99459.95
2023-05-11T06:48:35.662Z,99443.02
2023-05-11T06:49:40.814Z,99459.13
2023-05-11T06:50:46.010Z,99452.63
2023-05-11T06:51:51.194Z,99452.44
2023-05-11T06:52:56.391Z,99457.8
2023-05-11T06:54:01.553Z,99444.7
2023-05-11T06:55:06.732Z,99451.8
2023-05-11T06:56:11.896Z,99452.52
2023-05-11T06:57:17.103Z,99447.38
2023-05-11T06:58:22.276Z,99451.61
2023-05-11T06:59:27.452Z,99447.16
2023-05-11T07:00:32.621Z,99439.34
2023-05-11T07:01:37.971Z,99446.74
2023-05-11T07:02:43.387Z,99442.91
2023-05-11T07:03:48.723Z,99442.5
2023-05-11T07:04:57.466Z,99436.96
2023-05-11T07:06:02.899Z,99442.91
2023-05-11T07:07:08.113Z,99442.31
2023-05-11T07:08:13.312Z,99435.21
2023-05-11T07:09:18.524Z,99444.81
2023-05-11T07:10:24.087Z,99434.05
2023-05-11T07:11:29.494Z,99439.45
2023-05-11T07:12:34.706Z,99441.5
2023-05-11T07:13:39.879Z,99440.45
2023-05-11T07:14:45.201Z,99441.72
2023-05-11T07:15:50.390Z,99437.06
2023-05-11T07:16:55.588Z,99436.77
2023-05-11T07:18:00.863Z,99439.05
2023-05-11T07:19:06.283Z,99437.78
2023-05-11T07:20:11.715Z,99439.13
2023-05-11T07:21:16.921Z,99433.35
2023-05-11T07:22:22.113Z,99439.75
2023-05-11T07:23:27.296Z,99435.63
2023-05-11T07:24:32.482Z,99433.12
2023-05-11T07:25:37.664Z,99439.56
2023-05-11T07:26:42.825Z,99443.14
2023-05-11T07:27:47.992Z,99435.1
2023-05-11T07:28:53.154Z,99438.22
2023-05-11T07:29:58.361Z,99435.63
2023-05-11T07:31:03.630Z,99441.31
2023-05-11T07:32:09.091Z,99440.05
2023-05-11T07:33:14.261Z,99435.1
2023-05-11T07:34:19.447Z,99426.54
2023-05-11T07:35:25.595Z,99427.28
2023-05-11T07:36:30.885Z,99436.88
2023-05-11T07:37:36.058Z,99433.77
2023-05-11T07:38:41.296Z,99429.03
2023-05-11T07:39:46.636Z,99437.55
2023-05-11T07:40:51.967Z,99435.8
2023-05-11T07:41:57.172Z,99433.23
2023-05-11T07:43:02.333Z,99425.2
2023-05-11T07:44:07.474Z,99427.95
2023-05-11T07:45:12.657Z,99437.55
2023-05-11T07:46:17.903Z,99438.59
2023-05-11T07:47:23.276Z,99433.23
2023-05-11T07:48:28.493Z,99436.73
2023-05-11T07:49:44.821Z,99437.44
2023-05-11T07:50:50.032Z,99437.77
2023-05-11T07:51:55.200Z,99431.48
2023-05-11T07:53:00.572Z,99425.83
2023-05-11T07:54:05.924Z,99426.66
2023-05-11T07:55:11.111Z,99426.66
2023-05-11T07:56:16.312Z,99426.77
2023-05-11T07:57:21.504Z,99429.25
2023-05-11T07:58:26.750Z,99429.56
2023-05-11T07:59:32.128Z,99428.33
2023-05-11T08:00:37.302Z,99429.56
2023-05-11T08:01:42.607Z,99429.04
2023-05-11T08:02:48.063Z,99430.82
2023-05-11T08:03:53.529Z,99428.63
2023-05-11T08:04:58.734Z,99429.97
2023-05-11T08:06:04.037Z,99431.23
2023-05-11T08:07:09.398Z,99422.97
2023-05-11T08:08:14.635Z,99422.27
2023-05-11T08:09:19.814Z,99425.46
2023-05-11T08:10:25.114Z,99420.52
2023-05-11T08:11:30.302Z,99418.54
2023-05-11T08:12:35.482Z,99419.58
2023-05-11T08:13:40.675Z,99419.66
2023-05-11T08:14:45.860Z,99419.36
2023-05-11T08:15:51.201Z,99421.44
2023-05-11T08:16:56.442Z,99418.95
2023-05-11T08:18:01.815Z,99420.1
2023-05-11T08:19:07.507Z,99416.91
2023-05-11T08:20:12.820Z,99406.97
2023-05-11T08:21:17.964Z,99409.88
2023-05-11T08:22:23.134Z,99416.5
2023-05-11T08:23:28.353Z,99412.55
2023-05-11T08:24:33.560Z,99414.64
2023-05-11T08:25:38.743Z,99412.66
2023-05-11T08:26:43.935Z,99415.98
2023-05-11T08:27:49.234Z,99410.2
2023-05-11T08:28:54.687Z,99415.05
2023-05-11T08:30:01.102Z,99413.07
2023-05-11T08:31:06.323Z,99412.14
2023-05-11T08:32:11.738Z,99414.12
2023-05-11T08:33:38.798Z,99408.76
2023-05-11T08:34:44.420Z,99403.41
2023-05-11T08:35:49.740Z,99405.78
2023-05-11T08:36:54.923Z,99401.02
2023-05-11T08:38:00.146Z,99406.08
2023-05-11T08:39:05.401Z,99399.38
2023-05-11T08:40:11.505Z,99398.23
2023-05-11T08:41:18.891Z,99398.97
2023-05-11T08:42:24.077Z,99401.13
2023-05-11T08:43:29.254Z,99396.63
2023-05-11T08:44:34.429Z,99402.91
2023-05-11T08:45:42.286Z,99401.13
2023-05-11T08:46:47.509Z,99399.8
2023-05-11T08:47:52.710Z,99396
2023-05-11T08:48:57.964Z,99387.44
2023-05-11T08:50:03.221Z,99389.92
2023-05-11T08:51:08.403Z,99398.89
2023-05-11T08:52:13.648Z,99385.91
2023-05-11T08:53:18.919Z,99387.95
2023-05-11T08:54:24.079Z,99393.45
2023-05-11T08:55:29.278Z,99381.56
2023-05-11T08:56:34.473Z,99383.16
2023-05-11T08:57:39.667Z,99384.98
2023-05-11T08:58:45.083Z,99380.39
2023-05-11T08:59:50.326Z,99381.81
2023-05-11T09:00:55.836Z,99379.95
2023-05-11T09:02:01.150Z,99380.39
2023-05-11T09:03:06.625Z,99385.64
2023-05-11T09:04:11.981Z,99378.54
2023-05-11T09:05:17.501Z,99377.61
2023-05-11T09:06:23.186Z,99376.45
2023-05-11T09:07:28.479Z,99384.72
2023-05-11T09:08:33.688Z,99373.78
2023-05-11T09:09:38.834Z,99384.2
2023-05-11T09:10:44.006Z,99377.2
2023-05-11T09:11:49.180Z,99377.94
2023-05-11T09:12:54.340Z,99378.54
2023-05-11T09:13:59.517Z,99370.91
2023-05-11T09:15:04.696Z,99374.59
2023-05-11T09:16:35.989Z,99380.09
2023-05-11T09:17:41.924Z,99377.61
2023-05-11T09:18:47.330Z,99381.33
2023-05-11T09:19:52.570Z,99378.65
2023-05-11T09:20:57.759Z,99373.06
2023-05-11T09:22:02.938Z,99373.81
2023-05-11T09:23:08.083Z,99374.55
2023-05-11T09:24:13.302Z,99370.39
2023-05-11T09:25:18.870Z,99364.33
2023-05-11T09:26:24.605Z,99363.39
2023-05-11T09:27:29.759Z,99366.18
2023-05-11T09:28:37.475Z,99367.33
2023-05-11T09:29:53.452Z,99362.5
2023-05-11T09:30:58.792Z,99367.86
2023-05-11T09:32:04.126Z,99368.16
2023-05-11T09:33:09.401Z,99367
2023-05-11T09:34:14.638Z,99363.39
2023-05-11T09:35:20.307Z,99363.31
2023-05-11T09:36:25.997Z,99367.23
2023-05-11T09:37:31.490Z,99364.05
2023-05-11T09:38:36.786Z,99367.23
2023-05-11T09:40:25.477Z,99369.83
2023-05-11T09:41:37.775Z,99365.66
2023-05-11T09:42:43.027Z,99365.88
2023-05-11T09:43:48.190Z,99364.05
2023-05-11T09:44:53.337Z,99362.38
2023-05-11T09:45:58.641Z,99360.86
2023-05-11T09:47:03.906Z,99364.66
2023-05-11T09:48:09.178Z,99369.3
2023-05-11T09:49:14.373Z,99371.58
2023-05-11T09:50:26.144Z,99367.03
2023-05-11T09:51:31.707Z,99361.67
2023-05-11T09:52:36.908Z,99362.09
2023-05-11T09:53:42.154Z,99360.45
2023-05-11T09:54:47.574Z,99368.19
2023-05-11T09:55:52.862Z,99358.4
2023-05-11T09:56:58.083Z,99358.06
2023-05-11T09:58:03.269Z,99350.44
2023-05-11T09:59:08.455Z,99357.06
2023-05-11T10:00:13.665Z,99352.11
2023-05-11T10:01:18.964Z,99354.19
2023-05-11T10:02:24.393Z,99355.53
2023-05-11T10:03:29.985Z,99349.24
2023-05-11T10:04:35.571Z,99347.16
2023-05-11T10:05:40.776Z,99349.24
2023-05-11T10:06:46.065Z,99343.55
2023-05-11T10:07:51.274Z,99344.3
2023-05-11T10:08:56.425Z,99342.02
2023-05-11T10:10:01.657Z,99349.95
2023-05-11T10:11:06.845Z,99346.56
2023-05-11T10:12:12.174Z,99342.77
2023-05-11T10:13:17.398Z,99336.77
2023-05-11T10:14:22.577Z,99329.36
2023-05-11T10:15:27.907Z,99335.13
2023-05-11T10:16:33.337Z,99336.36
2023-05-11T10:17:39.034Z,99331.94
2023-05-11T10:18:44.380Z,99340.38
2023-05-11T10:19:49.616Z,99336.88
2023-05-11T10:20:54.776Z,99342.13
2023-05-11T10:22:00.074Z,99334.09
2023-05-11T10:23:05.317Z,99333.27
2023-05-11T10:24:10.703Z,99333.2
2023-05-11T10:25:15.903Z,99329.06
2023-05-11T10:26:21.078Z,99320.92
2023-05-11T10:27:26.284Z,99325.05
2023-05-11T10:28:32.496Z,99320.62
2023-05-11T10:29:37.682Z,99327.51
2023-05-11T10:30:42.862Z,99335.66
2023-05-11T10:31:48.139Z,99321.36
2023-05-11T10:32:53.488Z,99325.56
2023-05-11T10:33:58.763Z,99326.72
2023-05-11T10:35:03.959Z,99331.55
2023-05-11T10:36:09.183Z,99327.95
2023-05-11T10:37:14.364Z,99316.38
2023-05-11T10:38:19.534Z,99318.23
2023-05-11T10:39:24.682Z,99310.94
2023-05-11T10:40:29.880Z,99312.27
2023-05-11T10:41:35.054Z,99314.02
2023-05-11T10:42:40.376Z,99306.51
2023-05-11T10:43:45.595Z,99317.52
2023-05-11T10:44:50.799Z,99315.06
2023-05-11T10:45:56.069Z,99317.97
2023-05-11T10:47:01.409Z,99317.97
2023-05-11T10:48:06.679Z,99320.64
2023-05-11T10:49:11.919Z,99305.17
2023-05-11T10:50:17.397Z,99311.34
2023-05-11T10:51:23.025Z,99305.98
2023-05-11T10:52:30.641Z,99307.73
2023-05-11T10:53:35.832Z,99309.92
2023-05-11T10:54:41.021Z,99304.67
2023-05-11T10:55:48.297Z,99307.36
2023-05-11T10:56:53.476Z,99312.72
2023-05-11T10:57:58.799Z,99306.02
2023-05-11T10:59:04.050Z,99304.86
2023-05-11T11:00:09.412Z,99299.42
2023-05-11T11:01:14.916Z,99302
2023-05-11T11:02:20.200Z,99298.72
2023-05-11T11:03:25.435Z,99304.48
2023-05-11T11:04:31.142Z,99294.28
2023-05-11T11:05:36.409Z,99298.49
2023-05-11T11:06:41.652Z,99299.31
2023-05-11T11:07:47.104Z,99299.42
2023-05-11T11:08:52.314Z,99301.28
2023-05-11T11:09:57.518Z,99300.16
2023-05-11T11:11:03.877Z,99305.52
2023-05-11T11:12:10.658Z,99291.61
2023-05-11T11:13:15.968Z,99288.3
2023-05-11T11:14:21.247Z,99298.3
2023-05-11T11:15:26.477Z,99297.81
2023-05-11T11:16:31.710Z,99299.16
2023-05-11T11:17:37.451Z,99289.25
2023-05-11T11:18:42.742Z,99298.3
2023-05-11T11:19:47.993Z,99295.62
2023-05-11T11:20:53.180Z,99292.34
2023-05-11T11:21:59.882Z,99287.09
2023-05-11T11:23:05.110Z,99287.98
2023-05-11T11:24:10.268Z,99289.66
2023-05-11T11:25:15.454Z,99297.18
2023-05-11T11:26:20.947Z,99297.38
2023-05-11T11:27:30.730Z,99301.53
2023-05-11T11:28:35.996Z,99297.51
2023-05-11T11:29:41.159Z,99297.1
2023-05-11T11:30:46.386Z,99285.75
2023-05-11T11:31:51.580Z,99295.35
2023-05-11T11:32:56.914Z,99288.95
2023-05-11T11:34:02.255Z,99290.81
2023-05-11T11:35:07.452Z,99286.05
2023-05-11T11:36:12.637Z,99288.87
2023-05-11T11:37:17.876Z,99287.31
2023-05-11T11:38:23.055Z,99290.81
2023-05-11T11:39:28.304Z,99286.38
2023-05-11T11:40:51.017Z,99284.11
2023-05-11T11:41:57.067Z,99288.87
2023-05-11T11:43:02.293Z,99283.5
2023-05-11T11:44:07.464Z,99288.2
2023-05-11T11:45:12.657Z,99286.59
2023-05-11T11:46:17.875Z,99274.12
2023-05-11T11:47:23.105Z,99275.36
2023-05-11T11:48:28.285Z,99277.81
2023-05-11T11:49:33.538Z,99282.47
2023-05-11T11:50:38.725Z,99287.83
2023-05-11T11:51:43.918Z,99283.39
2023-05-11T11:52:49.079Z,99287.71
2023-05-11T11:53:54.282Z,99285.88
2023-05-11T11:54:59.437Z,99283.2
2023-05-11T11:56:04.601Z,99288.34
2023-05-11T11:57:09.771Z,99286.48
2023-05-11T11:58:14.942Z,99290.84
2023-05-11T11:59:20.133Z,99286.3
2023-05-11T12:00:25.348Z,99288.16
2023-05-11T12:01:30.569Z,99282.47
2023-05-11T12:02:35.931Z,99286.38
2023-05-11T12:03:41.579Z,99279.07
2023-05-11T12:04:47.261Z,99276.91
2023-05-11T12:05:52.498Z,99272.38
2023-05-11T12:06:57.669Z,99273.3
2023-05-11T12:08:02.815Z,99274.83
2023-05-11T12:09:08.006Z,99269.88
2023-05-11T12:10:13.378Z,99277.32
2023-05-11T12:11:18.782Z,99283.01
2023-05-11T12:12:24.009Z,99278.55
2023-05-11T12:13:29.206Z,99287.33
2023-05-11T12:14:34.391Z,99276.91
2023-05-11T12:15:39.587Z,99282.78
2023-05-11T12:16:44.827Z,99277.54
2023-05-11T12:17:50.162Z,99273.41
2023-05-11T12:18:56.043Z,99269.69
2023-05-11T12:20:05.460Z,99274.34
2023-05-11T12:21:10.621Z,99270.73
2023-05-11T12:22:15.860Z,99265.06
2023-05-11T12:23:21.065Z,99272.39
2023-05-11T12:24:26.252Z,99271.05
2023-05-11T12:25:31.484Z,99271.47
2023-05-11T12:26:36.689Z,99269.19
2023-05-11T12:27:41.893Z,99267.03
2023-05-11T12:28:47.070Z,99268.18
2023-05-11T12:29:52.265Z,99264.88
2023-05-11T12:31:00.718Z,99270.13
2023-05-11T12:32:06.139Z,99270.86
2023-05-11T12:33:11.461Z,99268.18
2023-05-11T12:34:16.752Z,99262.3
2023-05-11T12:35:22.205Z,99254.86
2023-05-11T12:36:27.706Z,99260.84
2023-05-11T12:37:33.165Z,99251.69
2023-05-11T12:38:38.983Z,99256.33
2023-05-11T12:39:44.407Z,99254.47
2023-05-11T12:40:49.858Z,99258.69
2023-05-11T12:41:55.167Z,99262.52
2023-05-11T12:43:00.529Z,99255.2
2023-05-11T12:44:05.744Z,99252.01
2023-05-11T12:45:11.226Z,99249.33
2023-05-11T12:46:16.533Z,99241.48
2023-05-11T12:47:21.804Z,99239.42
2023-05-11T12:48:27.334Z,99247.98
2023-05-11T12:49:32.818Z,99259.12
2023-05-11T12:50:37.993Z,99254.5
2023-05-11T12:51:46.186Z,99254.5
2023-05-11T12:52:54.348Z,99247.16